Time;durP1;ratioP1;P1;durP2;ratioP2;P2;SDS_P1;SDS_P2;PMS_P1;PMS_P2;Temp;Humidity;BMP_temperature;BMP_pressure;BME280_temperature;BME280_humidity;BME280_pressure;Samples;Min_cycle;Max_cycle;Signal;HPM_P1;HPM_P2
2021/08/23 00:00:16;;;;;;;5.97;1.80;;;;;;;;;;5084572;28;20201;-44
2021/08/23 00:02:42;;;;;;;1.95;1.75;;;;;;;;;;5080094;28;20483;-44
2021/08/23 00:05:08;;;;;;;4.55;2.13;;;;;;;;;;5080458;28;20210;-44
2021/08/23 00:07:34;;;;;;;2.25;1.70;;;;;;;;;;5087900;28;20170;-44
2021/08/23 00:10:00;;;;;;;1.98;1.63;;;;;;;;;;5077135;28;20538;-44
2021/08/23 00:12:27;;;;;;;2.67;1.88;;;;;;;;;;5077294;28;20206;-44
2021/08/23 00:14:53;;;;;;;2.88;1.80;;;;;;;;;;5094754;28;20169;-44
2021/08/23 00:17:19;;;;;;;2.58;1.92;;;;;;;;;;5081751;28;20190;-44
2021/08/23 00:19:46;;;;;;;2.25;1.80;;;;;;;;;;5078233;28;20177;-44
2021/08/23 00:22:29;;;;;;;2.75;2.25;;;;;;;;;;5086570;28;20678;-44
2021/08/23 00:24:56;;;;;;;2.38;1.95;;;;;;;;;;5108070;28;20196;-44
2021/08/23 00:27:22;;;;;;;3.78;1.55;;;;;;;;;;5096883;28;20170;-44
2021/08/23 00:29:48;;;;;;;2.47;1.80;;;;;;;;;;5096881;28;20201;-44
2021/08/23 00:32:15;;;;;;;2.40;1.80;;;;;;;;;;5086757;28;20297;-44
2021/08/23 00:34:41;;;;;;;2.00;1.80;;;;;;;;;;5096655;28;20445;-44
2021/08/23 00:37:07;;;;;;;2.90;1.92;;;;;;;;;;5082799;28;20188;-44
2021/08/23 00:39:34;;;;;;;1.90;1.80;;;;;;;;;;5078545;28;20249;-44
2021/08/23 00:42:01;;;;;;;2.67;2.10;;;;;;;;;;5088413;28;20190;-44
2021/08/23 00:44:27;;;;;;;2.13;1.92;;;;;;;;;;5077093;28;20197;-44
2021/08/23 00:46:53;;;;;;;2.22;2.00;;;;;;;;;;5086860;28;20178;-44
2021/08/23 00:49:19;;;;;;;2.17;1.80;;;;;;;;;;5095523;28;20431;-44
2021/08/23 00:51:45;;;;;;;2.30;1.67;;;;;;;;;;5084422;28;20206;-44
2021/08/23 00:54:11;;;;;;;1.80;1.60;;;;;;;;;;5094249;28;20443;-44
2021/08/23 00:56:37;;;;;;;2.08;1.85;;;;;;;;;;5090580;28;20181;-44
2021/08/23 00:59:08;;;;;;;2.67;2.00;;;;;;;;;;5080212;28;20170;-44
2021/08/23 01:01:36;;;;;;;2.47;1.80;;;;;;;;;;5086760;28;20183;-44
2021/08/23 01:04:02;;;;;;;2.58;1.77;;;;;;;;;;5079508;28;20197;-44
2021/08/23 01:06:29;;;;;;;3.22;2.00;;;;;;;;;;5086712;28;20179;-44
2021/08/23 01:08:58;;;;;;;1.92;1.73;;;;;;;;;;5090888;28;20174;-44
2021/08/23 01:14:28;;;;;;;2.20;1.60;;;;;;;;;;5095629;28;20214;-44
2021/08/23 01:16:54;;;;;;;1.83;1.70;;;;;;;;;;5087849;28;20595;-44
2021/08/23 01:19:22;;;;;;;3.58;1.70;;;;;;;;;;5075766;28;20174;-44
2021/08/23 01:21:51;;;;;;;3.30;2.00;;;;;;;;;;5093085;28;20186;-44
2021/08/23 01:24:17;;;;;;;2.45;2.17;;;;;;;;;;5101665;28;20186;-44
2021/08/23 01:26:45;;;;;;;3.95;1.92;;;;;;;;;;5090487;28;20182;-44
2021/08/23 01:29:16;;;;;;;2.42;1.98;;;;;;;;;;5098958;28;20181;-44
2021/08/23 01:31:42;;;;;;;3.03;2.03;;;;;;;;;;5108507;28;20201;-44
2021/08/23 01:34:09;;;;;;;1.90;1.70;;;;;;;;;;5085227;28;20178;-44
2021/08/23 01:36:35;;;;;;;1.70;1.60;;;;;;;;;;5085100;28;20227;-44
2021/08/23 01:39:01;;;;;;;3.28;1.90;;;;;;;;;;5089036;28;20538;-44
2021/08/23 01:41:27;;;;;;;3.17;2.00;;;;;;;;;;5076103;28;20155;-43
2021/08/23 01:43:53;;;;;;;2.25;2.00;;;;;;;;;;5075720;28;20561;-43
2021/08/23 01:46:19;;;;;;;2.10;1.90;;;;;;;;;;5090173;28;20453;-44
2021/08/23 01:48:46;;;;;;;2.33;1.88;;;;;;;;;;5089940;28;20162;-44
2021/08/23 01:51:12;;;;;;;1.92;1.77;;;;;;;;;;5083662;28;20173;-44
2021/08/23 01:53:38;;;;;;;2.83;1.75;;;;;;;;;;5081100;28;20499;-44
2021/08/23 01:56:05;;;;;;;2.55;1.70;;;;;;;;;;5074844;28;20178;-44
2021/08/23 01:58:31;;;;;;;2.25;1.70;;;;;;;;;;5074816;28;20177;-46
2021/08/23 02:00:57;;;;;;;1.70;1.60;;;;;;;;;;5075070;28;20290;-44
2021/08/23 02:03:23;;;;;;;1.85;1.70;;;;;;;;;;5082973;28;20194;-43
2021/08/23 02:05:49;;;;;;;2.03;1.83;;;;;;;;;;5090732;28;20182;-43
2021/08/23 02:08:15;;;;;;;2.03;1.80;;;;;;;;;;5080629;28;20449;-43
2021/08/23 02:10:41;;;;;;;3.13;1.92;;;;;;;;;;5089838;28;20185;-43
2021/08/23 02:13:07;;;;;;;2.42;1.98;;;;;;;;;;5089315;28;20232;-44
2021/08/23 02:15:33;;;;;;;1.95;1.58;;;;;;;;;;5082554;28;20545;-44
2021/08/23 02:17:59;;;;;;;1.90;1.80;;;;;;;;;;5094379;28;20184;-44
2021/08/23 02:20:25;;;;;;;2.25;2.15;;;;;;;;;;5091571;28;20170;-44
2021/08/23 02:22:51;;;;;;;2.28;1.90;;;;;;;;;;5092947;28;20208;-44
2021/08/23 02:25:22;;;;;;;2.83;1.92;;;;;;;;;;5103084;28;20201;-44
2021/08/23 02:27:48;;;;;;;2.10;1.85;;;;;;;;;;5094795;28;20213;-44
2021/08/23 02:30:14;;;;;;;3.47;1.88;;;;;;;;;;5095054;28;20173;-44
2021/08/23 02:32:40;;;;;;;3.17;1.70;;;;;;;;;;5083737;28;20198;-44
2021/08/23 02:35:07;;;;;;;3.00;1.80;;;;;;;;;;5083414;28;20205;-44
2021/08/23 02:37:32;;;;;;;2.70;2.13;;;;;;;;;;5079865;28;20377;-44
2021/08/23 02:39:58;;;;;;;2.33;1.70;;;;;;;;;;5083853;28;20554;-44
2021/08/23 02:42:24;;;;;;;2.63;2.22;;;;;;;;;;5086444;28;20182;-43
2021/08/23 02:44:50;;;;;;;2.08;1.88;;;;;;;;;;5094955;28;20250;-43
2021/08/23 02:47:16;;;;;;;2.53;2.00;;;;;;;;;;5093432;28;20182;-43
2021/08/23 02:49:42;;;;;;;4.32;2.00;;;;;;;;;;5093870;28;20605;-43
2021/08/23 02:52:08;;;;;;;2.83;2.30;;;;;;;;;;5081595;28;20260;-44
2021/08/23 02:54:34;;;;;;;2.10;1.90;;;;;;;;;;5094890;28;20189;-44
2021/08/23 02:57:00;;;;;;;2.10;1.90;;;;;;;;;;5085259;28;20552;-44
2021/08/23 02:59:26;;;;;;;2.45;1.60;;;;;;;;;;5085651;28;20232;-44
2021/08/23 03:01:52;;;;;;;1.90;1.70;;;;;;;;;;5083728;28;20209;-44
2021/08/23 03:04:18;;;;;;;3.13;2.03;;;;;;;;;;5074431;28;20269;-44
2021/08/23 03:06:44;;;;;;;1.80;1.70;;;;;;;;;;5085778;28;20247;-44
2021/08/23 03:09:10;;;;;;;2.35;1.85;;;;;;;;;;5074686;28;20182;-44
2021/08/23 03:11:36;;;;;;;2.45;2.25;;;;;;;;;;5087529;28;20189;-43
2021/08/23 03:14:03;;;;;;;1.80;1.70;;;;;;;;;;5093996;28;20170;-43
2021/08/23 03:16:29;;;;;;;2.42;1.90;;;;;;;;;;5094400;28;20260;-43
2021/08/23 03:18:54;;;;;;;2.17;1.98;;;;;;;;;;5093833;28;20257;-43
2021/08/23 03:21:20;;;;;;;3.50;2.22;;;;;;;;;;5092175;28;20188;-43
2021/08/23 03:23:46;;;;;;;2.40;2.20;;;;;;;;;;5094402;28;20498;-43
2021/08/23 03:26:12;;;;;;;2.67;2.00;;;;;;;;;;5095177;28;20212;-43
2021/08/23 03:28:38;;;;;;;2.20;1.90;;;;;;;;;;5093012;28;20178;-44
2021/08/23 03:31:04;;;;;;;2.55;1.70;;;;;;;;;;5090093;28;20167;-44
2021/08/23 03:33:32;;;;;;;2.30;2.03;;;;;;;;;;5074291;28;20460;-43
2021/08/23 03:35:58;;;;;;;2.45;2.00;;;;;;;;;;5078989;28;20195;-43
2021/08/23 03:38:24;;;;;;;2.30;1.92;;;;;;;;;;5080968;28;20179;-43
2021/08/23 03:40:50;;;;;;;1.95;1.80;;;;;;;;;;5083764;28;20162;-43
2021/08/23 03:43:16;;;;;;;3.72;2.13;;;;;;;;;;5081503;28;20792;-43
2021/08/23 03:45:42;;;;;;;2.38;2.00;;;;;;;;;;5098389;28;20173;-43
2021/08/23 03:48:08;;;;;;;2.88;2.03;;;;;;;;;;5097025;28;20459;-43
2021/08/23 03:50:34;;;;;;;2.08;1.88;;;;;;;;;;5091883;28;20182;-43
2021/08/23 03:53:00;;;;;;;2.17;1.98;;;;;;;;;;5077879;28;20198;-43
2021/08/23 03:55:26;;;;;;;3.03;1.98;;;;;;;;;;5083278;28;20550;-44
2021/08/23 03:57:52;;;;;;;2.33;1.77;;;;;;;;;;5097373;28;20185;-44
2021/08/23 04:00:18;;;;;;;2.35;1.88;;;;;;;;;;5097170;28;20249;-44
2021/08/23 04:02:45;;;;;;;1.73;1.63;;;;;;;;;;5090053;28;20195;-44
2021/08/23 04:05:11;;;;;;;3.97;1.90;;;;;;;;;;5078513;28;20170;-43
2021/08/23 04:07:37;;;;;;;2.00;1.80;;;;;;;;;;5088254;28;20181;-44
2021/08/23 04:10:04;;;;;;;2.72;2.15;;;;;;;;;;5077881;28;20182;-43
2021/08/23 04:12:30;;;;;;;2.10;1.90;;;;;;;;;;5077485;28;20711;-43
2021/08/23 04:14:56;;;;;;;2.75;1.75;;;;;;;;;;5077518;28;20261;-43
2021/08/23 04:17:22;;;;;;;1.98;1.73;;;;;;;;;;5076938;28;20443;-43
2021/08/23 04:19:48;;;;;;;2.70;1.77;;;;;;;;;;5077269;28;20182;-43
2021/08/23 04:22:14;;;;;;;7.18;2.95;;;;;;;;;;5092469;28;20239;-43
2021/08/23 04:24:40;;;;;;;8.18;3.28;;;;;;;;;;5101168;28;20180;-43
2021/08/23 04:27:06;;;;;;;10.68;3.03;;;;;;;;;;5097000;28;20165;-43
2021/08/23 04:29:33;;;;;;;7.05;2.50;;;;;;;;;;5097167;28;20168;-43
2021/08/23 04:31:59;;;;;;;8.10;2.22;;;;;;;;;;5096632;28;20857;-43
2021/08/23 04:34:25;;;;;;;7.10;2.80;;;;;;;;;;5086698;28;20181;-43
2021/08/23 04:36:51;;;;;;;4.35;2.60;;;;;;;;;;5088024;28;20265;-43
2021/08/23 04:39:17;;;;;;;5.75;2.75;;;;;;;;;;5087106;28;20206;-43
2021/08/23 04:41:43;;;;;;;5.03;2.20;;;;;;;;;;5086704;28;20163;-43
2021/08/23 04:44:09;;;;;;;4.60;2.30;;;;;;;;;;5076908;28;20186;-43
2021/08/23 04:46:37;;;;;;;4.80;2.05;;;;;;;;;;5076887;28;20182;-43
2021/08/23 04:49:03;;;;;;;7.45;2.45;;;;;;;;;;5092418;28;20181;-43
2021/08/23 04:51:29;;;;;;;4.07;2.10;;;;;;;;;;5081486;28;20572;-43
2021/08/23 04:53:55;;;;;;;5.97;2.30;;;;;;;;;;5076654;28;20182;-43
2021/08/23 04:56:21;;;;;;;4.57;1.98;;;;;;;;;;5076743;28;20212;-43
2021/08/23 04:58:47;;;;;;;2.65;1.83;;;;;;;;;;5076199;28;20253;-43
2021/08/23 05:01:13;;;;;;;2.35;1.70;;;;;;;;;;5083802;28;20170;-43
2021/08/23 05:03:39;;;;;;;3.17;2.17;;;;;;;;;;5076463;28;20222;-43
2021/08/23 05:06:05;;;;;;;4.95;2.10;;;;;;;;;;5089581;28;20178;-43
2021/08/23 05:08:31;;;;;;;2.28;1.60;;;;;;;;;;5089443;28;20201;-43
2021/08/23 05:10:57;;;;;;;2.47;1.88;;;;;;;;;;5096084;28;20221;-43
2021/08/23 05:13:24;;;;;;;2.22;1.90;;;;;;;;;;5088305;28;20323;-43
2021/08/23 05:15:50;;;;;;;3.28;1.85;;;;;;;;;;5096254;28;20265;-43
2021/08/23 05:18:16;;;;;;;2.53;1.90;;;;;;;;;;5089490;28;20193;-43
2021/08/23 05:20:42;;;;;;;3.55;1.98;;;;;;;;;;5087427;28;20209;-43
2021/08/23 05:23:08;;;;;;;2.85;1.70;;;;;;;;;;5098857;28;20193;-43
2021/08/23 05:25:36;;;;;;;2.33;1.88;;;;;;;;;;5102007;28;20206;-43
2021/08/23 05:28:02;;;;;;;4.18;2.13;;;;;;;;;;5088108;28;20182;-43
2021/08/23 05:30:29;;;;;;;2.63;1.92;;;;;;;;;;5087600;28;20183;-43
2021/08/23 05:32:55;;;;;;;3.05;1.88;;;;;;;;;;5085808;28;20208;-43
2021/08/23 05:35:21;;;;;;;1.95;1.63;;;;;;;;;;5076144;28;20170;-43
2021/08/23 05:37:48;;;;;;;2.00;1.80;;;;;;;;;;5094170;28;20177;-43
2021/08/23 05:40:16;;;;;;;2.83;1.70;;;;;;;;;;5095784;28;20165;-43
2021/08/23 05:42:42;;;;;;;1.70;1.60;;;;;;;;;;5091561;28;20173;-43
2021/08/23 05:45:08;;;;;;;4.40;2.03;;;;;;;;;;5074871;28;20272;-43
2021/08/23 05:47:34;;;;;;;2.85;1.92;;;;;;;;;;5095147;28;20174;-43
2021/08/23 05:50:00;;;;;;;2.10;1.90;;;;;;;;;;5086145;28;20264;-43
2021/08/23 05:52:26;;;;;;;1.65;1.55;;;;;;;;;;5086487;28;20194;-43
2021/08/23 05:54:52;;;;;;;2.58;2.30;;;;;;;;;;5079704;28;20170;-43
2021/08/23 05:57:18;;;;;;;2.05;1.85;;;;;;;;;;5087953;28;20450;-43
2021/08/23 05:59:44;;;;;;;2.30;1.92;;;;;;;;;;5089551;28;20186;-43
2021/08/23 06:02:10;;;;;;;3.20;2.15;;;;;;;;;;5093766;28;20180;-43
2021/08/23 06:04:36;;;;;;;3.83;2.10;;;;;;;;;;5095747;28;20174;-43
2021/08/23 06:07:02;;;;;;;2.13;1.90;;;;;;;;;;5090773;28;20201;-43
2021/08/23 06:09:28;;;;;;;1.90;1.80;;;;;;;;;;5080683;28;20208;-43
2021/08/23 06:11:54;;;;;;;1.77;1.67;;;;;;;;;;5090588;28;20211;-43
2021/08/23 06:14:20;;;;;;;2.70;2.00;;;;;;;;;;5092868;28;20181;-43
2021/08/23 06:16:46;;;;;;;1.88;1.77;;;;;;;;;;5095471;28;20173;-43
2021/08/23 06:19:12;;;;;;;2.00;1.58;;;;;;;;;;5094807;28;20273;-43
2021/08/23 06:21:38;;;;;;;2.10;1.58;;;;;;;;;;5088760;28;20193;-43
2021/08/23 06:24:04;;;;;;;3.33;2.15;;;;;;;;;;5103466;28;20248;-43
2021/08/23 06:26:30;;;;;;;2.22;2.03;;;;;;;;;;5083023;28;20184;-43
2021/08/23 06:28:56;;;;;;;2.10;1.88;;;;;;;;;;5077354;28;20268;-43
2021/08/23 06:31:23;;;;;;;1.92;1.73;;;;;;;;;;5089264;28;20479;-43
2021/08/23 06:33:50;;;;;;;1.85;1.75;;;;;;;;;;5094368;28;20207;-43
2021/08/23 06:36:16;;;;;;;2.97;2.30;;;;;;;;;;5094062;28;20181;-43
2021/08/23 06:38:42;;;;;;;2.90;2.03;;;;;;;;;;5093844;28;20181;-42
2021/08/23 06:41:08;;;;;;;1.90;1.75;;;;;;;;;;5086694;28;20174;-42
2021/08/23 06:43:33;;;;;;;1.90;1.80;;;;;;;;;;5077228;28;20182;-42
2021/08/23 06:45:59;;;;;;;1.90;1.80;;;;;;;;;;5088417;28;20173;-43
2021/08/23 06:48:25;;;;;;;2.42;2.22;;;;;;;;;;5114743;28;20228;-43
2021/08/23 06:50:52;;;;;;;2.13;2.03;;;;;;;;;;5106277;28;20182;-43
2021/08/23 06:53:18;;;;;;;2.08;1.95;;;;;;;;;;5084725;28;20209;-43
2021/08/23 06:55:44;;;;;;;2.55;2.35;;;;;;;;;;5094351;28;20260;-43
2021/08/23 06:58:10;;;;;;;2.20;1.90;;;;;;;;;;5084026;28;20232;-43
2021/08/23 07:00:36;;;;;;;3.35;2.22;;;;;;;;;;5091758;28;20201;-43
2021/08/23 07:03:03;;;;;;;2.30;1.98;;;;;;;;;;5091352;28;20196;-43
2021/08/23 07:05:28;;;;;;;2.08;1.67;;;;;;;;;;5074780;28;20188;-43
2021/08/23 07:07:55;;;;;;;2.38;2.08;;;;;;;;;;5079282;28;20182;-43
2021/08/23 07:10:21;;;;;;;2.20;2.00;;;;;;;;;;5097965;28;20185;-43
2021/08/23 07:12:46;;;;;;;1.88;1.77;;;;;;;;;;5075480;28;20417;-43
2021/08/23 07:15:12;;;;;;;1.85;1.75;;;;;;;;;;5074746;28;20167;-43
2021/08/23 07:17:38;;;;;;;2.72;1.85;;;;;;;;;;5075805;28;20585;-43
2021/08/23 07:20:05;;;;;;;1.80;1.70;;;;;;;;;;5076278;28;20184;-43
2021/08/23 07:22:31;;;;;;;2.75;1.70;;;;;;;;;;5095316;28;20225;-43
2021/08/23 07:24:57;;;;;;;2.30;1.92;;;;;;;;;;5098581;28;20307;-43
2021/08/23 07:27:23;;;;;;;3.53;1.90;;;;;;;;;;5097786;28;20613;-43
2021/08/23 07:29:49;;;;;;;2.30;1.92;;;;;;;;;;5110494;28;20256;-43
2021/08/23 07:32:15;;;;;;;2.22;2.00;;;;;;;;;;5115153;28;20232;-43
2021/08/23 07:34:41;;;;;;;2.25;1.63;;;;;;;;;;5078354;28;20174;-43
2021/08/23 07:37:07;;;;;;;2.10;1.70;;;;;;;;;;5060311;28;20182;-43
2021/08/23 07:39:33;;;;;;;1.95;1.75;;;;;;;;;;5077937;28;20316;-43
2021/08/23 07:41:59;;;;;;;2.83;1.67;;;;;;;;;;5079005;28;20265;-43
2021/08/23 07:44:25;;;;;;;1.80;1.65;;;;;;;;;;5078078;28;20167;-43
2021/08/23 07:46:51;;;;;;;2.95;1.60;;;;;;;;;;5078153;28;20177;-43
2021/08/23 07:49:17;;;;;;;2.28;1.67;;;;;;;;;;5077490;28;20185;-43
2021/08/23 07:51:43;;;;;;;3.28;1.90;;;;;;;;;;5077917;28;20527;-43
2021/08/23 07:54:09;;;;;;;1.88;1.50;;;;;;;;;;5077908;28;20167;-43
2021/08/23 07:56:35;;;;;;;2.65;1.80;;;;;;;;;;5077924;28;20172;-42
2021/08/23 07:59:01;;;;;;;1.80;1.70;;;;;;;;;;5078147;28;20179;-43
2021/08/23 08:01:27;;;;;;;1.80;1.65;;;;;;;;;;5077663;28;20257;-43
2021/08/23 08:03:53;;;;;;;1.85;1.60;;;;;;;;;;5077682;28;20232;-43
2021/08/23 08:06:19;;;;;;;1.98;1.70;;;;;;;;;;5088927;28;20211;-42
2021/08/23 08:08:45;;;;;;;1.73;1.40;;;;;;;;;;5097161;28;20547;-42
2021/08/23 08:11:12;;;;;;;1.77;1.60;;;;;;;;;;5097717;28;20275;-42
2021/08/23 08:13:38;;;;;;;1.90;1.50;;;;;;;;;;5091308;28;20592;-42
2021/08/23 08:16:04;;;;;;;1.73;1.60;;;;;;;;;;5087646;28;20181;-42
2021/08/23 08:18:30;;;;;;;2.65;1.60;;;;;;;;;;5097346;28;20433;-43
2021/08/23 08:20:56;;;;;;;1.60;1.20;;;;;;;;;;5097191;28;20162;-43
2021/08/23 08:23:22;;;;;;;1.88;1.73;;;;;;;;;;5098496;28;20181;-43
2021/08/23 08:25:48;;;;;;;1.63;1.52;;;;;;;;;;5113817;28;20566;-42
2021/08/23 08:28:14;;;;;;;1.50;1.40;;;;;;;;;;5117446;28;20197;-43
2021/08/23 08:30:40;;;;;;;1.48;1.38;;;;;;;;;;5102767;28;20216;-43
2021/08/23 08:33:06;;;;;;;1.80;1.55;;;;;;;;;;5097385;28;20236;-43
2021/08/23 08:35:32;;;;;;;2.08;1.25;;;;;;;;;;5097458;28;20169;-43
2021/08/23 08:37:58;;;;;;;1.40;1.30;;;;;;;;;;5091510;28;20557;-43
2021/08/23 08:40:25;;;;;;;1.40;1.30;;;;;;;;;;5076930;28;20170;-43
2021/08/23 08:42:51;;;;;;;1.48;1.30;;;;;;;;;;5076874;28;20265;-43
2021/08/23 08:45:17;;;;;;;1.30;1.20;;;;;;;;;;5077204;28;20252;-43
2021/08/23 08:47:44;;;;;;;3.15;1.40;;;;;;;;;;5077014;28;20538;-43
2021/08/23 08:50:13;;;;;;;2.58;1.25;;;;;;;;;;5076720;28;20228;-43
2021/08/23 08:52:39;;;;;;;1.10;1.10;;;;;;;;;;5076441;28;20573;-43
2021/08/23 08:55:05;;;;;;;1.40;1.30;;;;;;;;;;5076815;28;20604;-43
2021/08/23 08:57:32;;;;;;;1.40;1.30;;;;;;;;;;5076246;28;20228;-43
2021/08/23 08:59:58;;;;;;;1.50;1.30;;;;;;;;;;5076721;28;20167;-43
2021/08/23 09:02:24;;;;;;;2.25;1.10;;;;;;;;;;5082988;28;20186;-43
2021/08/23 09:04:50;;;;;;;1.45;1.10;;;;;;;;;;5096807;28;20461;-43
2021/08/23 09:07:16;;;;;;;0.88;0.88;;;;;;;;;;5096163;28;20180;-43
2021/08/23 09:09:42;;;;;;;0.93;0.93;;;;;;;;;;5096571;28;20559;-43
2021/08/23 09:12:13;;;;;;;2.47;0.90;;;;;;;;;;5096290;28;20632;-43
2021/08/23 09:14:49;;;;;;;1.00;0.90;;;;;;;;;;5096598;28;20184;-43
2021/08/23 09:17:15;;;;;;;1.13;0.80;;;;;;;;;;5096086;28;20227;-43
2021/08/23 09:19:41;;;;;;;2.35;1.10;;;;;;;;;;5079616;28;20542;-43
2021/08/23 09:22:10;;;;;;;1.13;0.93;;;;;;;;;;5088626;28;20194;-43
2021/08/23 09:24:37;;;;;;;1.20;1.10;;;;;;;;;;5108278;28;20465;-43
2021/08/23 09:27:03;;;;;;;0.98;0.98;;;;;;;;;;5116303;28;20215;-43
2021/08/23 09:29:30;;;;;;;0.80;0.80;;;;;;;;;;5116610;28;20434;-43
2021/08/23 09:32:00;;;;;;;1.40;0.70;;;;;;;;;;5116589;28;20161;-43
2021/08/23 09:34:26;;;;;;;0.70;0.70;;;;;;;;;;5113213;28;20166;-43
2021/08/23 09:36:56;;;;;;;0.57;0.57;;;;;;;;;;5095665;28;20189;-42
2021/08/23 09:39:26;;;;;;;0.98;0.85;;;;;;;;;;5095892;28;20455;-42
2021/08/23 09:41:52;;;;;;;1.10;0.95;;;;;;;;;;5088870;28;20206;-43
2021/08/23 09:44:18;;;;;;;1.50;0.70;;;;;;;;;;5075643;28;20210;-43
2021/08/23 09:46:44;;;;;;;0.80;0.80;;;;;;;;;;5075513;28;20192;-43
2021/08/23 09:49:12;;;;;;;0.80;0.80;;;;;;;;;;5075129;28;20162;-42
2021/08/23 09:51:39;;;;;;;0.70;0.70;;;;;;;;;;5076742;28;20182;-42
2021/08/23 09:54:05;;;;;;;0.82;0.73;;;;;;;;;;5075386;28;20456;-43
2021/08/23 09:56:35;;;;;;;0.43;0.43;;;;;;;;;;5075576;28;20163;-43
2021/08/23 09:59:05;;;;;;;0.88;0.73;;;;;;;;;;5074860;28;20271;-42
2021/08/23 10:01:34;;;;;;;1.13;0.50;;;;;;;;;;5075230;28;20208;-42
2021/08/23 10:04:03;;;;;;;0.55;0.55;;;;;;;;;;5075218;28;20584;-42
2021/08/23 10:06:29;;;;;;;0.70;0.70;;;;;;;;;;5076315;28;20670;-42
2021/08/23 10:08:55;;;;;;;0.60;0.50;;;;;;;;;;5074774;28;20174;-43
2021/08/23 10:11:22;;;;;;;0.88;0.50;;;;;;;;;;5075274;28;20441;-43
2021/08/23 10:13:48;;;;;;;0.50;0.50;;;;;;;;;;5075057;28;20255;-42
2021/08/23 10:16:14;;;;;;;0.40;0.40;;;;;;;;;;5075213;28;20181;-42
2021/08/23 10:18:40;;;;;;;0.57;0.50;;;;;;;;;;5074729;28;20173;-42
2021/08/23 10:21:08;;;;;;;0.63;0.50;;;;;;;;;;5076735;28;20245;-43
2021/08/23 10:23:35;;;;;;;0.60;0.60;;;;;;;;;;5098580;28;20170;-43
2021/08/23 10:26:01;;;;;;;0.22;0.22;;;;;;;;;;5089864;28;20568;-43
2021/08/23 10:28:35;;;;;;;0.60;0.60;;;;;;;;;;5074290;28;20187;-43
2021/08/23 10:31:11;;;;;;;0.40;0.40;;;;;;;;;;5075007;28;20192;-43
2021/08/23 10:33:42;;;;;;;0.60;0.40;;;;;;;;;;5075079;28;20197;-43
2021/08/23 10:36:11;;;;;;;0.30;0.30;;;;;;;;;;5074859;28;20163;-43
2021/08/23 10:38:38;;;;;;;3.80;0.60;;;;;;;;;;5074298;28;20198;-42
2021/08/23 10:41:07;;;;;;;0.68;0.68;;;;;;;;;;5075778;28;20253;-42
2021/08/23 10:43:42;;;;;;;1.02;0.55;;;;;;;;;;5074719;28;20266;-43
2021/08/23 10:46:19;;;;;;;0.80;0.65;;;;;;;;;;5074861;28;20185;-43
2021/08/23 10:48:48;;;;;;;0.88;0.60;;;;;;;;;;5073498;28;20187;-43
2021/08/23 10:51:25;;;;;;;0.43;0.43;;;;;;;;;;5074802;28;20181;-43
2021/08/23 10:53:51;;;;;;;0.60;0.60;;;;;;;;;;5074894;28;20445;-43
2021/08/23 10:56:19;;;;;;;0.40;0.40;;;;;;;;;;5075575;28;20189;-43
2021/08/23 10:58:47;;;;;;;1.75;0.70;;;;;;;;;;5074058;28;20173;-43
2021/08/23 11:01:19;;;;;;;0.45;0.45;;;;;;;;;;5073679;28;20225;-42
2021/08/23 11:03:46;;;;;;;0.68;0.57;;;;;;;;;;5091153;28;20186;-42
2021/08/23 11:06:12;;;;;;;0.70;0.63;;;;;;;;;;5074056;28;20189;-42
2021/08/23 11:08:38;;;;;;;0.60;0.60;;;;;;;;;;5073885;28;20196;-42
2021/08/23 11:11:14;;;;;;;0.70;0.70;;;;;;;;;;5082917;28;20177;-42
2021/08/23 11:13:41;;;;;;;0.95;0.70;;;;;;;;;;5081147;28;20255;-43
2021/08/23 11:16:07;;;;;;;0.73;0.73;;;;;;;;;;5073809;28;20245;-43
2021/08/23 11:18:44;;;;;;;0.82;0.63;;;;;;;;;;5072281;28;20182;-43
2021/08/23 11:21:17;;;;;;;0.50;0.50;;;;;;;;;;5083158;28;20212;-43
2021/08/23 11:23:48;;;;;;;0.65;0.65;;;;;;;;;;5097207;28;20557;-43
2021/08/23 11:26:22;;;;;;;0.65;0.65;;;;;;;;;;5113201;28;20177;-42
2021/08/23 11:28:48;;;;;;;0.55;0.40;;;;;;;;;;5099344;28;20385;-43
2021/08/23 11:31:18;;;;;;;0.50;0.50;;;;;;;;;;5083930;28;20194;-43
2021/08/23 11:33:44;;;;;;;0.75;0.60;;;;;;;;;;5088349;28;20202;-43
2021/08/23 11:36:21;;;;;;;0.77;0.60;;;;;;;;;;5094532;28;20782;-43
2021/08/23 11:38:47;;;;;;;0.60;0.60;;;;;;;;;;5080914;28;20199;-43
2021/08/23 11:41:14;;;;;;;0.60;0.60;;;;;;;;;;5092471;28;20162;-43
2021/08/23 11:43:40;;;;;;;0.50;0.50;;;;;;;;;;5082670;28;20548;-43
2021/08/23 11:46:06;;;;;;;0.30;0.30;;;;;;;;;;5080248;28;20205;-43
2021/08/23 11:48:32;;;;;;;0.30;0.30;;;;;;;;;;5074907;28;20690;-43
2021/08/23 11:50:59;;;;;;;0.40;0.40;;;;;;;;;;5094533;28;20170;-43
2021/08/23 11:53:27;;;;;;;0.30;0.30;;;;;;;;;;5081941;28;20298;-42
2021/08/23 11:56:02;;;;;;;0.30;0.22;;;;;;;;;;5073894;28;20189;-43
2021/08/23 11:58:35;;;;;;;0.40;0.40;;;;;;;;;;5073493;28;20547;-43
2021/08/23 12:01:03;;;;;;;0.22;0.22;;;;;;;;;;5061398;28;20265;-43
2021/08/23 12:03:30;;;;;;;0.20;0.20;;;;;;;;;;5096451;28;20572;-43
2021/08/23 12:06:02;;;;;;;0.22;0.22;;;;;;;;;;5083849;28;20178;-43
2021/08/23 12:08:31;;;;;;;0.50;0.30;;;;;;;;;;5082643;28;20198;-42
2021/08/23 12:10:57;;;;;;;0.30;0.22;;;;;;;;;;5078642;28;20167;-42
2021/08/23 12:13:24;;;;;;;0.38;0.32;;;;;;;;;;5087006;28;20220;-42
2021/08/23 12:16:01;;;;;;;0.25;0.25;;;;;;;;;;5077508;28;20242;-42
2021/08/23 12:18:34;;;;;;;0.30;0.30;;;;;;;;;;5082360;28;20188;-42
2021/08/23 12:21:19;;;;;;;2.95;0.20;;;;;;;;;;5095585;28;20170;-42
2021/08/23 12:23:54;;;;;;;0.30;0.30;;;;;;;;;;5102762;28;20263;-42
2021/08/23 12:26:29;;;;;;;1.15;0.28;;;;;;;;;;5077254;28;20173;-42
2021/08/23 12:28:59;;;;;;;0.40;0.40;;;;;;;;;;5087731;28;20560;-42
2021/08/23 12:31:25;;;;;;;0.28;0.28;;;;;;;;;;5096768;28;20217;-42
2021/08/23 12:33:51;;;;;;;0.30;0.30;;;;;;;;;;5093598;28;20833;-43
2021/08/23 12:36:17;;;;;;;0.28;0.28;;;;;;;;;;5084537;28;20255;-43
2021/08/23 12:38:45;;;;;;;0.52;0.30;;;;;;;;;;5083431;28;20578;-43
2021/08/23 12:41:11;;;;;;;0.40;0.30;;;;;;;;;;5095722;28;20166;-43
2021/08/23 12:43:38;;;;;;;0.68;0.30;;;;;;;;;;5085375;28;20178;-43
2021/08/23 12:46:04;;;;;;;0.47;0.30;;;;;;;;;;5096741;28;20170;-43
2021/08/23 12:48:33;;;;;;;0.20;0.20;;;;;;;;;;5096702;28;20200;-42
2021/08/23 12:51:00;;;;;;;0.20;0.20;;;;;;;;;;5093404;28;20265;-42
2021/08/23 12:53:26;;;;;;;0.50;0.20;;;;;;;;;;5083266;28;20202;-42
2021/08/23 12:55:52;;;;;;;0.30;0.20;;;;;;;;;;5096865;28;20247;-42
2021/08/23 12:58:18;;;;;;;0.22;0.22;;;;;;;;;;5096382;28;20195;-42
2021/08/23 13:00:44;;;;;;;0.30;0.20;;;;;;;;;;5078253;28;20187;-42
2021/08/23 13:03:10;;;;;;;0.20;0.20;;;;;;;;;;5076505;28;20186;-42
2021/08/23 13:05:36;;;;;;;0.20;0.20;;;;;;;;;;5076570;28;20245;-42
2021/08/23 13:08:02;;;;;;;0.30;0.30;;;;;;;;;;5083273;28;20567;-43
2021/08/23 13:10:28;;;;;;;0.20;0.20;;;;;;;;;;5092474;28;20178;-43
2021/08/23 13:12:54;;;;;;;0.20;0.20;;;;;;;;;;5093041;28;20197;-43
2021/08/23 13:15:20;;;;;;;0.10;0.10;;;;;;;;;;5076366;28;20170;-43
2021/08/23 13:17:46;;;;;;;0.20;0.20;;;;;;;;;;5075917;28;20171;-42
2021/08/23 13:20:12;;;;;;;0.20;0.20;;;;;;;;;;5075962;28;20174;-42
2021/08/23 13:22:39;;;;;;;0.25;0.25;;;;;;;;;;5086335;28;20315;-42
2021/08/23 13:25:05;;;;;;;0.30;0.30;;;;;;;;;;5106389;28;20209;-42
2021/08/23 13:27:31;;;;;;;0.20;0.20;;;;;;;;;;5116114;28;20169;-43
2021/08/23 13:29:57;;;;;;;0.32;0.32;;;;;;;;;;5104096;28;20191;-42
2021/08/23 13:32:23;;;;;;;0.40;0.40;;;;;;;;;;5087366;28;20193;-42
2021/08/23 13:34:49;;;;;;;0.40;0.40;;;;;;;;;;5082241;28;20177;-42
2021/08/23 13:37:15;;;;;;;1.58;0.60;;;;;;;;;;5087459;28;20537;-42
2021/08/23 13:39:41;;;;;;;3.53;0.73;;;;;;;;;;5086883;28;20608;-43
2021/08/23 13:42:07;;;;;;;0.70;0.70;;;;;;;;;;5084601;28;20311;-43
2021/08/23 13:44:33;;;;;;;2.60;0.80;;;;;;;;;;5095743;28;20529;-43
2021/08/23 13:46:59;;;;;;;1.05;0.60;;;;;;;;;;5088041;28;20304;-42
2021/08/23 13:49:25;;;;;;;0.55;0.50;;;;;;;;;;5094006;28;20166;-42
2021/08/23 13:51:51;;;;;;;4.05;0.60;;;;;;;;;;5085147;28;20256;-42
2021/08/23 13:54:17;;;;;;;4.90;1.23;;;;;;;;;;5082720;28;20176;-43
2021/08/23 13:56:43;;;;;;;0.93;0.80;;;;;;;;;;5094114;28;20166;-42
2021/08/23 13:59:09;;;;;;;2.30;0.85;;;;;;;;;;5080547;28;20198;-42
2021/08/23 14:01:36;;;;;;;3.95;1.00;;;;;;;;;;5076917;28;20470;-42
2021/08/23 14:04:02;;;;;;;2.50;0.70;;;;;;;;;;5078005;28;20198;-43
2021/08/23 14:06:28;;;;;;;6.90;0.68;;;;;;;;;;5076904;28;20178;-43
2021/08/23 14:08:54;;;;;;;0.70;0.70;;;;;;;;;;5081476;28;20612;-43
2021/08/23 14:11:20;;;;;;;0.85;0.60;;;;;;;;;;5095171;28;20463;-43
2021/08/23 14:13:47;;;;;;;1.40;0.60;;;;;;;;;;5085616;28;20212;-43
2021/08/23 14:16:13;;;;;;;2.25;0.70;;;;;;;;;;5093671;28;20553;-43
2021/08/23 14:18:39;;;;;;;1.30;0.70;;;;;;;;;;5094641;28;20185;-43
2021/08/23 14:21:06;;;;;;;1.10;0.80;;;;;;;;;;5084032;28;20476;-43
2021/08/23 14:23:32;;;;;;;1.00;0.73;;;;;;;;;;5098284;28;20264;-42
2021/08/23 14:25:58;;;;;;;0.60;0.60;;;;;;;;;;5110147;28;20284;-42
2021/08/23 14:28:24;;;;;;;2.38;0.60;;;;;;;;;;5094743;28;20208;-42
2021/08/23 14:30:50;;;;;;;0.70;0.52;;;;;;;;;;5095000;28;20582;-42
2021/08/23 14:33:16;;;;;;;1.05;0.70;;;;;;;;;;5095124;28;20580;-42
2021/08/23 14:35:42;;;;;;;0.70;0.70;;;;;;;;;;5094848;28;20209;-42
2021/08/23 14:38:08;;;;;;;2.25;0.85;;;;;;;;;;5084752;28;20188;-42
2021/08/23 14:40:34;;;;;;;0.70;0.60;;;;;;;;;;5075418;28;20174;-42
2021/08/23 14:43:00;;;;;;;2.03;0.63;;;;;;;;;;5091329;28;20434;-42